Hovedside
METAR-TAF:

METAR-TAF

Lufthavner :

Vanua Lava, Vanuatu

breddegrad: 13-51-06S, lengdegrad: 167-32-13E, høyde over havet: 2 m

Gjeldene værobservasjon

Denne rapporten ble laget for 5 timer og 46 minutter siden, klokken 12:00 UTC
Flau vind
Temperatur 24°C
Luftfuktighet 100%
Trykk 1010 hPa
Sikt 10 km eller mer
Få skyer i en høyde av 2000 ft

METAR: NVSC 151200Z 00000KT 9999 FEW020 24/24 Q1010

Tid: 04:46 (17:46 UTC)

Varsel

Denne rapporten ble laget for 46 minutter siden, klokken 17:00 UTC
Varsel gyldig fra 15. klokken 18 UTC til 16. klokken 18 UTC
Vind 4 kt fra skiftende retning
Sikt 10 km eller mer
Spredte skyer i en høyde av 2000 ft

TAF: NVSC 151700Z 1518/1618 VRB04KT 9999 SCT020

Værobservasjoner og værvarsel for over 4000 flyplasser (METAR- og TAF-rapporter).

Tilgjengelige stasjoner er representert av de røde og gule prikkene på kartet.

Hold musepekeren over prikken for å se navnet på stasjonen.

Klikk så for å se værobservasjoner og -varsler.

For å forandre kartet kan du klikke på den grønne knappen med svart kryss for å zoome inn, på den grønne knappen med strek for å zoome ut, eller på de grønne pilene for å se tilstøtende kart.


METAR-TAF: